Time;durP1;ratioP1;P1;durP2;ratioP2;P2;SDS_P1;SDS_P2;PMS_P1;PMS_P2;Temp;Humidity;BMP_temperature;BMP_pressure;BME280_temperature;BME280_humidity;BME280_pressure;Samples;Min_cycle;Max_cycle;Signal;HPM_P1;HPM_P2
2022/11/07 00:01:19;;;;;;;23.65;15.30;;;;;;;8.68;100.00;98394.34;1795999;79;20949;-59
2022/11/07 00:03:45;;;;;;;27.40;16.85;;;;;;;8.67;100.00;98394.06;1802033;79;20858;-61
2022/11/07 00:06:14;;;;;;;23.38;16.90;;;;;;;8.63;100.00;98385.80;1791655;79;20893;-60
2022/11/07 00:08:40;;;;;;;22.20;15.78;;;;;;;8.63;100.00;98387.14;1799915;78;20846;-58
2022/11/07 00:11:07;;;;;;;19.70;15.98;;;;;;;8.66;100.00;98385.81;1801890;79;20968;-59
2022/11/07 00:13:34;;;;;;;23.73;16.17;;;;;;;8.67;100.00;98390.06;1799686;78;21515;-59
2022/11/07 00:16:06;;;;;;;21.80;15.23;;;;;;;8.65;100.00;98380.19;1794194;79;20882;-61
2022/11/07 00:18:33;;;;;;;27.30;17.45;;;;;;;8.64;100.00;98378.60;1794062;79;21300;-60
2022/11/07 00:21:04;;;;;;;26.37;17.65;;;;;;;8.64;100.00;98374.59;1797890;78;20981;-60
2022/11/07 00:23:32;;;;;;;27.00;18.60;;;;;;;8.62;100.00;98370.84;1794606;78;20965;-59
2022/11/07 00:26:05;;;;;;;26.87;17.57;;;;;;;8.63;100.00;98368.98;1794318;79;20961;-59
2022/11/07 00:28:35;;;;;;;29.42;17.82;;;;;;;8.62;100.00;98370.06;1801150;78;20909;-60
2022/11/07 00:31:04;;;;;;;29.50;18.00;;;;;;;8.60;100.00;98368.98;1803809;78;20882;-58
2022/11/07 00:33:30;;;;;;;32.65;19.27;;;;;;;8.59;100.00;98375.41;1792623;79;20963;-58
2022/11/07 00:35:57;;;;;;;33.78;19.67;;;;;;;8.60;100.00;98369.50;1808463;79;20968;-58
2022/11/07 00:38:24;;;;;;;31.15;19.12;;;;;;;8.59;100.00;98373.27;1793453;79;21554;-60
2022/11/07 00:40:57;;;;;;;35.23;19.75;;;;;;;8.58;100.00;98372.45;1806606;78;21012;-60
2022/11/07 00:43:25;;;;;;;26.82;17.52;;;;;;;8.58;100.00;98373.78;1791156;79;21702;-59
2022/11/07 00:45:54;;;;;;;34.85;19.05;;;;;;;8.57;100.00;98373.51;1799053;78;20846;-60
2022/11/07 00:48:22;;;;;;;34.25;20.08;;;;;;;8.59;100.00;98373.27;1781541;79;20957;-58
2022/11/07 00:50:50;;;;;;;31.95;21.07;;;;;;;8.59;100.00;98371.40;1799129;79;20913;-59
2022/11/07 00:53:16;;;;;;;39.48;20.23;;;;;;;8.60;100.00;98368.17;1791066;79;21408;-59
2022/11/07 00:55:43;;;;;;;30.20;19.48;;;;;;;8.62;100.00;98359.38;1790832;79;21167;-59
2022/11/07 00:58:10;;;;;;;38.73;20.17;;;;;;;8.61;100.00;98361.77;1794655;79;20984;-60
2022/11/07 01:00:38;;;;;;;36.70;20.95;;;;;;;8.61;100.00;98363.91;1787503;79;21575;-60
2022/11/07 01:06:01;;;;;;;40.00;21.42;;;;;;;8.64;100.00;98358.58;1799318;79;26899;-59
2022/11/07 01:08:28;;;;;;;34.78;20.43;;;;;;;8.60;100.00;98355.63;1792999;79;21491;-59
2022/11/07 01:10:55;;;;;;;37.23;20.70;;;;;;;8.59;100.00;98365.25;1799448;79;20976;-60
2022/11/07 01:13:22;;;;;;;44.73;22.07;;;;;;;8.60;100.00;98361.49;1801044;78;21389;-59
2022/11/07 01:15:49;;;;;;;39.67;22.13;;;;;;;8.59;100.00;98359.91;1808540;79;20928;-60
2022/11/07 01:18:15;;;;;;;38.58;22.45;;;;;;;8.60;100.00;98353.48;1800564;78;20944;-60
2022/11/07 01:20:43;;;;;;;48.85;22.25;;;;;;;8.63;100.00;98350.28;1794596;79;21020;-59
2022/11/07 01:23:10;;;;;;;36.98;21.97;;;;;;;8.66;100.00;98351.09;1790079;79;21563;-60
2022/11/07 01:25:38;;;;;;;37.03;21.90;;;;;;;8.66;100.00;98348.42;1795874;78;20854;-58
2022/11/07 01:28:05;;;;;;;41.85;22.07;;;;;;;8.65;100.00;98350.81;1805909;78;20898;-59
2022/11/07 01:30:39;;;;;;;35.78;22.42;;;;;;;8.63;100.00;98343.08;1795742;78;20920;-60
2022/11/07 01:33:06;;;;;;;31.68;21.10;;;;;;;8.65;100.00;98341.47;1800881;79;21650;-58
2022/11/07 01:35:34;;;;;;;43.13;22.93;;;;;;;8.64;100.00;98332.68;1802678;78;21413;-60
2022/11/07 01:38:00;;;;;;;38.05;22.90;;;;;;;8.61;100.00;98335.88;1802159;78;20952;-58
2022/11/07 01:40:28;;;;;;;36.08;21.80;;;;;;;8.60;100.00;98333.45;1790044;79;20949;-59
2022/11/07 01:42:56;;;;;;;34.92;22.82;;;;;;;8.58;100.00;98334.27;1799958;79;21009;-59
2022/11/07 01:45:26;;;;;;;36.83;22.50;;;;;;;8.56;100.00;98323.06;1791129;79;21993;-60
2022/11/07 01:47:54;;;;;;;35.20;21.70;;;;;;;8.55;100.00;98328.15;1797978;79;20992;-58
2022/11/07 01:50:20;;;;;;;42.43;24.35;;;;;;;8.55;100.00;98326.81;1796485;78;20877;-60
2022/11/07 01:52:48;;;;;;;44.58;24.27;;;;;;;8.53;100.00;98321.72;1790463;79;21423;-59
2022/11/07 01:55:25;;;;;;;48.40;24.00;;;;;;;8.53;100.00;98327.06;1794673;79;21082;-60
2022/11/07 01:58:04;;;;;;;37.98;23.20;;;;;;;8.56;100.00;98327.06;1794850;78;21008;-59
2022/11/07 02:00:31;;;;;;;40.95;23.15;;;;;;;8.59;100.00;98322.53;1807820;78;20929;-59
2022/11/07 02:03:02;;;;;;;44.65;25.05;;;;;;;8.58;100.00;98323.58;1798691;78;20921;-59
2022/11/07 02:05:36;;;;;;;52.95;25.35;;;;;;;8.58;100.00;98312.91;1790555;78;20977;-59
2022/11/07 02:08:05;;;;;;;;;;;;;;;8.57;100.00;98312.66;1792889;79;20885;-59
2022/11/07 02:10:34;;;;;;;42.75;23.38;;;;;;;8.52;100.00;98307.32;1817085;77;21924;-60
2022/11/07 02:13:00;;;;;;;40.12;23.30;;;;;;;8.50;100.00;98305.45;1822524;78;20914;-60
2022/11/07 02:15:28;;;;;;;37.88;23.92;;;;;;;8.50;100.00;98300.89;1834110;78;20928;-59
2022/11/07 02:25:45;;;;;;;37.48;23.57;;;;;;;8.45;100.00;98281.44;1824830;77;21058;-58
2022/11/07 02:28:11;;;;;;;37.85;24.27;;;;;;;8.44;100.00;98277.95;1829067;78;20933;-59
2022/11/07 02:30:38;;;;;;;43.15;25.08;;;;;;;8.44;100.00;98277.16;1832809;77;21409;-57
2022/11/07 02:33:21;;;;;;;41.77;23.55;;;;;;;8.44;100.00;98271.81;1819823;78;20843;-59
2022/11/07 02:35:51;;;;;;;41.92;23.73;;;;;;;8.42;100.00;98271.28;1832178;78;22029;-59
2022/11/07 02:38:31;;;;;;;37.33;22.48;;;;;;;8.38;100.00;98271.56;1825738;78;20969;-59
2022/11/07 02:41:16;;;;;;;42.00;25.00;;;;;;;8.35;100.00;98270.77;1826160;78;20957;-59
2022/11/07 02:43:47;;;;;;;35.45;23.90;;;;;;;8.35;100.00;98266.76;1818003;78;20907;-58
2022/11/07 02:46:14;;;;;;;35.90;24.12;;;;;;;8.32;100.00;98259.28;1825262;78;20997;-60
2022/11/07 02:48:49;;;;;;;37.35;23.85;;;;;;;8.29;100.00;98264.62;1830243;78;21896;-58
2022/11/07 02:51:16;;;;;;;35.38;23.02;;;;;;;8.28;100.00;98265.70;1833840;78;21504;-60
2022/11/07 02:53:43;;;;;;;35.43;24.00;;;;;;;8.29;100.00;98254.50;1827665;78;20878;-58
2022/11/07 02:56:10;;;;;;;38.02;24.57;;;;;;;8.30;100.00;98261.42;1828284;78;20970;-60
2022/11/07 02:58:36;;;;;;;38.45;24.15;;;;;;;8.28;100.00;98259.56;1824855;78;20968;-58
2022/11/07 03:01:07;;;;;;;35.58;23.07;;;;;;;8.24;100.00;98254.72;1819082;77;21986;-58
2022/11/07 03:03:40;;;;;;;33.13;21.75;;;;;;;8.26;100.00;98261.17;1828373;78;20938;-60
2022/11/07 03:06:09;;;;;;;35.28;24.07;;;;;;;8.30;100.00;98265.42;1828171;78;21528;-62
2022/11/07 03:08:37;;;;;;;38.78;24.90;;;;;;;8.30;100.00;98266.76;1817952;78;21461;-59
2022/11/07 03:11:04;;;;;;;30.75;21.90;;;;;;;8.30;100.00;98270.23;1831290;78;20913;-61
2022/11/07 03:13:31;;;;;;;35.95;21.60;;;;;;;8.32;100.00;98268.63;1822966;78;21102;-61
2022/11/07 03:15:58;;;;;;;27.20;20.70;;;;;;;8.32;100.00;98268.63;1825521;78;21044;-61
2022/11/07 03:18:24;;;;;;;29.82;21.15;;;;;;;8.31;100.00;98272.38;1833090;78;20902;-61
2022/11/07 03:20:51;;;;;;;32.85;22.55;;;;;;;8.29;100.00;98271.84;1830615;77;21504;-60
2022/11/07 03:23:18;;;;;;;30.20;22.13;;;;;;;8.25;100.00;98271.02;1832305;78;21011;-61
2022/11/07 03:25:44;;;;;;;34.43;20.60;;;;;;;8.27;100.00;98273.98;1833437;78;22016;-61
2022/11/07 03:28:11;;;;;;;28.80;20.35;;;;;;;8.29;100.00;98278.52;1830896;78;20870;-61
2022/11/07 03:30:37;;;;;;;31.48;21.10;;;;;;;8.30;100.00;98290.25;1818216;78;20922;-61
2022/11/07 03:33:05;;;;;;;28.10;21.40;;;;;;;8.30;100.00;98286.77;1828076;78;21008;-61
2022/11/07 03:35:32;;;;;;;33.28;21.12;;;;;;;8.31;100.00;98292.39;1822914;78;21024;-61
2022/11/07 03:37:59;;;;;;;29.85;21.73;;;;;;;8.29;100.00;98293.20;1823642;78;21096;-60
2022/11/07 03:40:25;;;;;;;29.20;20.10;;;;;;;8.29;100.00;98289.20;1824141;78;21481;-60
2022/11/07 03:42:52;;;;;;;32.13;20.88;;;;;;;8.28;100.00;98285.72;1823692;78;20851;-59
2022/11/07 03:45:19;;;;;;;30.30;21.40;;;;;;;8.25;100.00;98284.88;1829756;77;21415;-59
2022/11/07 03:47:45;;;;;;;27.40;20.32;;;;;;;8.23;100.00;98292.36;1833026;78;20977;-59
2022/11/07 03:50:16;;;;;;;28.23;19.25;;;;;;;8.21;100.00;98295.30;1829255;78;21977;-59
2022/11/07 03:52:43;;;;;;;27.77;19.30;;;;;;;8.20;100.00;98293.69;1826415;78;20967;-61
2022/11/07 03:55:10;;;;;;;29.63;20.70;;;;;;;8.18;100.00;98295.83;1826463;77;21167;-61
2022/11/07 03:57:37;;;;;;;27.93;19.50;;;;;;;8.17;100.00;98294.77;1829047;78;20958;-60
2022/11/07 04:00:06;;;;;;;25.08;17.98;;;;;;;8.16;100.00;98294.49;1829748;77;21607;-59
2022/11/07 04:02:34;;;;;;;23.83;17.92;;;;;;;8.15;100.00;98294.22;1829534;78;21053;-59
2022/11/07 04:05:01;;;;;;;24.52;18.45;;;;;;;8.13;100.00;98298.50;1823208;78;20997;-60
2022/11/07 04:07:27;;;;;;;24.15;17.77;;;;;;;8.13;100.00;98301.69;1818478;78;20922;-61
2022/11/07 04:09:54;;;;;;;25.85;18.00;;;;;;;8.12;100.00;98302.25;1831715;77;21002;-61
2022/11/07 04:17:53;;;;;;;26.77;18.00;;;;;;;8.14;100.00;98307.30;1823396;78;20962;-58
2022/11/07 04:20:20;;;;;;;28.25;18.73;;;;;;;8.15;100.00;98300.36;1826346;78;21438;-58
2022/11/07 04:22:47;;;;;;;23.75;18.20;;;;;;;8.16;100.00;98303.30;1824234;78;20851;-60
2022/11/07 04:25:14;;;;;;;24.15;16.27;;;;;;;8.17;100.00;98305.45;1835080;77;20902;-58
2022/11/07 04:27:41;;;;;;;21.10;16.10;;;;;;;8.19;100.00;98305.45;1833804;77;21182;-60
2022/11/07 04:30:20;;;;;;;24.05;16.70;;;;;;;8.20;100.00;98308.37;1824999;78;20863;-58
2022/11/07 04:32:53;;;;;;;26.77;18.98;;;;;;;8.18;100.00;98305.17;1822870;78;20957;-60
2022/11/07 04:35:21;;;;;;;28.25;18.70;;;;;;;8.16;100.00;98308.64;1827988;77;20850;-61
2022/11/07 04:37:48;;;;;;;25.68;17.55;;;;;;;8.15;100.00;98305.69;1817918;78;20938;-61
2022/11/07 04:40:16;;;;;;;24.37;17.05;;;;;;;8.15;100.00;98306.22;1822320;78;22240;-59
2022/11/07 04:42:43;;;;;;;29.35;19.50;;;;;;;8.16;100.00;98304.64;1830536;78;20906;-61
2022/11/07 04:45:10;;;;;;;31.55;20.92;;;;;;;8.17;100.00;98302.22;1826653;78;21005;-60
2022/11/07 04:47:37;;;;;;;30.72;20.75;;;;;;;8.17;100.00;98299.55;1826686;78;20970;-59
2022/11/07 04:50:07;;;;;;;30.50;20.05;;;;;;;8.18;100.00;98302.50;1825950;78;21016;-59
2022/11/07 04:52:33;;;;;;;27.60;19.37;;;;;;;8.17;100.00;98304.11;1833459;78;21188;-58
2022/11/07 04:55:01;;;;;;;29.15;19.67;;;;;;;8.17;100.00;98297.44;1823016;78;21008;-58
2022/11/07 04:57:27;;;;;;;32.03;20.92;;;;;;;8.17;100.00;98298.22;1821154;78;20915;-59
2022/11/07 04:59:54;;;;;;;36.25;23.57;;;;;;;8.21;100.00;98304.64;1831533;78;20875;-60
2022/11/07 05:02:23;;;;;;;29.60;20.48;;;;;;;8.22;100.00;98300.89;1827547;78;21083;-60
2022/11/07 05:04:51;;;;;;;32.23;21.95;;;;;;;8.24;100.00;98299.31;1835461;78;21094;-60
2022/11/07 05:07:18;;;;;;;30.65;20.65;;;;;;;8.21;100.00;98299.30;1832878;78;21377;-58
2022/11/07 05:09:47;;;;;;;30.70;21.55;;;;;;;8.22;100.00;98300.89;1835162;77;21492;-59
2022/11/07 05:12:13;;;;;;;33.58;22.00;;;;;;;8.21;100.00;98299.30;1823814;77;20839;-61
2022/11/07 05:14:40;;;;;;;32.93;21.12;;;;;;;8.22;100.00;98300.08;1825584;78;20871;-61
2022/11/07 05:17:11;;;;;;;29.37;21.17;;;;;;;8.23;100.00;98303.84;1832323;78;21904;-60
2022/11/07 05:19:42;;;;;;;29.80;19.85;;;;;;;8.24;100.00;98305.42;1832914;77;21531;-58
2022/11/07 05:24:56;;;;;;;40.70;21.45;;;;;;;8.28;100.00;98308.41;1823546;77;20910;-59
2022/11/07 05:27:23;;;;;;;29.77;21.97;;;;;;;8.31;100.00;98305.73;1817954;78;20871;-60
2022/11/07 05:29:50;;;;;;;31.40;20.65;;;;;;;8.30;100.00;98310.27;1829841;78;21886;-61
2022/11/07 05:32:17;;;;;;;27.48;20.12;;;;;;;8.30;100.00;98310.27;1826745;78;20965;-61
2022/11/07 05:34:44;;;;;;;28.90;21.55;;;;;;;8.32;100.00;98312.66;1824573;78;20851;-60
2022/11/07 05:37:11;;;;;;;32.70;23.07;;;;;;;8.34;100.00;98314.55;1830634;78;20983;-59
2022/11/07 05:39:38;;;;;;;35.28;22.05;;;;;;;8.33;100.00;98324.42;1817958;78;20918;-61
2022/11/07 05:42:04;;;;;;;33.23;21.17;;;;;;;8.33;100.00;98316.94;1822085;78;21637;-60
2022/11/07 05:44:32;;;;;;;34.38;20.90;;;;;;;8.31;100.00;98319.89;1834284;78;20847;-60
2022/11/07 05:47:00;;;;;;;30.12;20.85;;;;;;;8.33;100.00;98321.75;1831823;78;21038;-61
2022/11/07 05:49:27;;;;;;;33.02;22.35;;;;;;;8.34;100.00;98325.23;1826255;78;20950;-61
2022/11/07 05:51:53;;;;;;;31.60;22.50;;;;;;;8.38;100.00;98320.95;1817770;78;20917;-61
2022/11/07 05:54:20;;;;;;;30.52;21.40;;;;;;;8.38;100.00;98322.28;1821073;78;21092;-60
2022/11/07 05:56:46;;;;;;;31.07;22.77;;;;;;;8.40;100.00;98327.62;1821131;78;20933;-62
2022/11/07 05:59:13;;;;;;;32.10;23.65;;;;;;;8.41;100.00;98331.09;1821740;78;20843;-61
2022/11/07 06:01:42;;;;;;;31.07;23.18;;;;;;;8.43;100.00;98326.28;1825439;77;20997;-58
2022/11/07 06:04:09;;;;;;;32.05;22.40;;;;;;;8.43;100.00;98329.73;1821250;78;21395;-61
2022/11/07 06:06:36;;;;;;;34.03;22.70;;;;;;;8.47;100.00;98335.35;1818643;78;21988;-61
2022/11/07 06:09:03;;;;;;;33.75;22.10;;;;;;;8.50;100.00;98333.48;1784224;80;20923;-59
2022/11/07 06:11:31;;;;;;;31.85;22.60;;;;;;;8.54;100.00;98330.54;1782693;80;21050;-60
2022/11/07 06:13:58;;;;;;;44.45;25.27;;;;;;;8.54;100.00;98334.55;1815694;78;21010;-59
2022/11/07 06:16:26;;;;;;;41.08;29.27;;;;;;;8.56;100.00;98344.42;1785936;79;21054;-59
2022/11/07 06:18:53;;;;;;;30.02;21.68;;;;;;;8.58;100.00;98340.94;1801694;78;21109;-60
2022/11/07 06:21:20;;;;;;;30.72;21.85;;;;;;;8.60;100.00;98333.45;1788929;78;21383;-60
2022/11/07 06:23:47;;;;;;;26.97;20.90;;;;;;;8.63;100.00;98339.61;1795535;78;21045;-60
2022/11/07 06:26:15;;;;;;;30.32;21.87;;;;;;;8.66;100.00;98339.08;1805114;78;21021;-60
2022/11/07 06:28:42;;;;;;;31.37;21.62;;;;;;;8.65;100.00;98340.13;1791233;78;21368;-60
2022/11/07 06:31:09;;;;;;;28.67;20.65;;;;;;;8.68;100.00;98338.27;1818821;78;21101;-59
2022/11/07 06:33:36;;;;;;;28.85;21.30;;;;;;;8.67;100.00;98337.98;1796848;78;21019;-60
2022/11/07 06:36:05;;;;;;;25.08;18.80;;;;;;;8.69;100.00;98338.55;1782343;79;21558;-59
2022/11/07 06:38:32;;;;;;;26.02;19.23;;;;;;;8.72;100.00;98332.64;1761620;80;21047;-58
2022/11/07 06:41:09;;;;;;;28.55;19.12;;;;;;;8.72;100.00;98344.13;1821050;78;20955;-59
2022/11/07 06:43:36;;;;;;;31.97;18.92;;;;;;;8.71;100.00;98341.22;1810759;77;21039;-60
2022/11/07 06:46:05;;;;;;;26.17;18.23;;;;;;;8.72;100.00;98341.47;1804807;79;21145;-60
2022/11/07 06:48:33;;;;;;;31.80;21.23;;;;;;;8.75;100.00;98340.13;1804386;78;22688;-59
2022/11/07 06:51:01;;;;;;;29.52;19.70;;;;;;;8.75;100.00;98332.11;1810985;78;20990;-60
2022/11/07 06:53:28;;;;;;;29.80;20.95;;;;;;;8.75;100.00;98337.45;1805410;79;20852;-60
2022/11/07 06:55:59;;;;;;;27.87;21.15;;;;;;;8.76;100.00;98335.06;1806394;78;20930;-58
2022/11/07 06:58:25;;;;;;;23.32;17.62;;;;;;;8.78;100.00;98335.59;1830193;77;21002;-60
2022/11/07 07:00:52;;;;;;;26.52;19.25;;;;;;;8.81;100.00;98335.83;1827110;77;20969;-60
2022/11/07 07:03:21;;;;;;;25.77;19.17;;;;;;;8.80;100.00;98332.92;1841696;77;20884;-59
2022/11/07 07:05:51;;;;;;;23.02;17.32;;;;;;;8.82;100.00;98330.77;1829906;77;20966;-60
2022/11/07 07:08:18;;;;;;;25.50;17.52;;;;;;;8.85;100.00;98337.45;1797040;78;21190;-60
2022/11/07 07:10:46;;;;;;;28.10;18.50;;;;;;;8.84;100.00;98335.30;1814062;77;20962;-62
2022/11/07 07:13:13;;;;;;;21.27;17.48;;;;;;;8.85;100.00;98342.26;1811277;78;20867;-60
2022/11/07 07:15:41;;;;;;;26.15;19.02;;;;;;;8.86;100.00;98339.03;1808202;77;20939;-59
2022/11/07 07:18:08;;;;;;;21.50;15.98;;;;;;;8.88;100.00;98322.19;1840754;77;20872;-60
2022/11/07 07:20:34;;;;;;;22.35;16.23;;;;;;;8.86;100.00;98331.02;1830272;77;21415;-59
2022/11/07 07:23:01;;;;;;;22.10;16.30;;;;;;;8.87;100.00;98335.30;1824524;77;20950;-61
2022/11/07 07:25:30;;;;;;;27.98;17.45;;;;;;;8.87;100.00;98336.11;1833420;76;20914;-60
2022/11/07 07:27:57;;;;;;;25.50;18.60;;;;;;;8.90;100.00;98329.42;1850257;77;21067;-59
2022/11/07 07:30:25;;;;;;;26.57;18.87;;;;;;;8.91;100.00;98328.34;1814614;77;21402;-59
2022/11/07 07:32:53;;;;;;;23.47;18.25;;;;;;;8.92;100.00;98340.63;1817182;77;21107;-59
2022/11/07 07:35:21;;;;;;;24.35;19.27;;;;;;;8.93;100.00;98331.53;1814442;77;20948;-59
2022/11/07 07:37:51;;;;;;;34.67;26.95;;;;;;;8.97;100.00;98336.62;1822653;77;21501;-59
2022/11/07 07:42:56;;;;;;;29.70;20.75;;;;;;;9.05;100.00;98329.36;1818252;77;21100;-60
2022/11/07 07:45:23;;;;;;;21.65;16.80;;;;;;;9.09;100.00;98326.41;1818418;77;21772;-60
2022/11/07 07:47:51;;;;;;;23.62;18.05;;;;;;;9.12;100.00;98321.86;1820766;77;20950;-60
2022/11/07 07:50:20;;;;;;;22.20;17.52;;;;;;;9.15;100.00;98325.86;1813064;77;20887;-59
2022/11/07 07:52:47;;;;;;;24.32;17.70;;;;;;;9.17;100.00;98321.04;1822486;77;21013;-59
2022/11/07 07:55:13;;;;;;;33.53;23.98;;;;;;;9.18;100.00;98318.64;1797124;77;21084;-60
2022/11/07 07:57:41;;;;;;;24.18;19.12;;;;;;;9.20;100.00;98315.97;1816334;77;21232;-61
2022/11/07 08:00:11;;;;;;;24.32;18.02;;;;;;;9.24;100.00;98313.53;1812715;77;20931;-60
2022/11/07 08:02:42;;;;;;;22.20;18.90;;;;;;;9.28;100.00;98318.05;1814145;77;20924;-59
2022/11/07 08:05:11;;;;;;;22.60;17.17;;;;;;;9.31;100.00;98323.39;1818132;77;21030;-60
2022/11/07 08:07:48;;;;;;;24.50;16.90;;;;;;;9.34;100.00;98322.86;1808747;77;20951;-59
2022/11/07 08:10:16;;;;;;;24.85;16.50;;;;;;;9.35;100.00;98315.89;1811704;78;21276;-59
2022/11/07 08:12:47;;;;;;;19.35;15.53;;;;;;;9.36;100.00;98312.69;1796973;78;20930;-59
2022/11/07 08:15:15;;;;;;;;;;;;;;;9.36;100.00;98316.16;1790820;78;33438;-58
2022/11/07 08:17:42;;;;;;;23.52;17.23;;;;;;;9.36;100.00;98315.36;1804746;78;20098;-59
2022/11/07 08:20:10;;;;;;;25.08;16.82;;;;;;;9.33;100.00;98318.03;1786937;79;21464;-59
2022/11/07 08:22:37;;;;;;;24.55;16.00;;;;;;;9.35;100.00;98317.78;1796257;78;21678;-59
2022/11/07 08:25:07;;;;;;;21.42;16.93;;;;;;;9.39;100.00;98325.52;1807098;78;20961;-59
2022/11/07 08:27:34;;;;;;;25.50;18.73;;;;;;;9.42;100.00;98319.63;1809770;78;21090;-59
2022/11/07 08:30:03;;;;;;;25.48;19.10;;;;;;;9.40;100.00;98322.55;1799080;78;20988;-59
2022/11/07 08:32:29;;;;;;;22.67;16.82;;;;;;;9.40;100.00;98321.22;1824278;77;21000;-60
2022/11/07 08:34:56;;;;;;;22.93;17.20;;;;;;;9.39;100.00;98326.31;1830499;77;21104;-60
2022/11/07 08:37:23;;;;;;;22.02;16.37;;;;;;;9.42;100.00;98321.73;1829419;77;21474;-59
2022/11/07 08:39:50;;;;;;;22.37;16.73;;;;;;;9.44;100.00;98322.26;1815948;77;21062;-59
2022/11/07 08:42:16;;;;;;;23.85;16.67;;;;;;;9.49;100.00;98328.92;1822406;77;21062;-59
2022/11/07 08:44:43;;;;;;;20.92;16.12;;;;;;;9.51;100.00;98325.46;1824686;77;21011;-59
2022/11/07 08:47:11;;;;;;;26.93;15.38;;;;;;;9.54;100.00;98327.56;1820484;77;21912;-59
2022/11/07 08:49:39;;;;;;;24.20;16.93;;;;;;;9.57;100.00;98320.34;1774159;79;20887;-59
2022/11/07 08:52:06;;;;;;;23.20;16.95;;;;;;;9.58;100.00;98317.13;1824271;76;20921;-59
2022/11/07 08:54:33;;;;;;;22.05;16.40;;;;;;;9.61;100.00;98314.69;1811367;78;20989;-59
2022/11/07 08:57:00;;;;;;;19.98;16.35;;;;;;;9.65;100.00;98317.63;1823844;77;20936;-59
2022/11/07 08:59:28;;;;;;;21.15;15.90;;;;;;;9.69;100.00;98313.84;1832574;77;21099;-58
2022/11/07 09:01:56;;;;;;;20.10;15.58;;;;;;;9.72;100.00;98310.63;1779989;78;21627;-63
2022/11/07 09:04:23;;;;;;;24.02;17.90;;;;;;;9.74;100.00;98309.81;1807241;77;21091;-59
2022/11/07 09:06:56;;;;;;;21.95;18.10;;;;;;;9.77;100.00;98310.61;1776809;79;21081;-61
2022/11/07 09:09:25;;;;;;;24.35;16.87;;;;;;;9.79;100.00;98307.11;1797241;77;21123;-60
2022/11/07 09:11:54;;;;;;;19.80;15.65;;;;;;;9.82;100.00;98303.89;1768781;78;23410;-60
2022/11/07 09:14:21;;;;;;;23.12;16.45;;;;;;;9.83;100.00;98305.47;1793713;78;20960;-59
2022/11/07 09:16:48;;;;;;;21.42;17.05;;;;;;;9.85;100.00;98301.44;1750572;81;21007;-58
2022/11/07 09:19:15;;;;;;;19.70;15.28;;;;;;;9.87;100.00;98297.95;1783246;78;20960;-58
2022/11/07 09:21:44;;;;;;;20.57;15.88;;;;;;;9.88;100.00;98296.08;1774863;80;21029;-57
2022/11/07 09:24:10;;;;;;;24.12;15.53;;;;;;;9.91;100.00;98288.84;1785826;79;21058;-59
2022/11/07 09:26:37;;;;;;;21.05;17.40;;;;;;;9.94;100.00;98283.72;1819491;78;21026;-59
2022/11/07 09:29:03;;;;;;;28.98;21.57;;;;;;;10.00;100.00;98286.63;1821995;78;20959;-59
2022/11/07 09:31:30;;;;;;;38.73;29.18;;;;;;;10.06;100.00;98286.04;1805573;78;21113;-59
2022/11/07 09:33:57;;;;;;;34.65;26.00;;;;;;;10.07;100.00;98283.63;1810431;78;21031;-59
2022/11/07 09:36:24;;;;;;;31.95;24.75;;;;;;;10.04;100.00;98280.17;1806486;78;21115;-61
2022/11/07 09:38:52;;;;;;;37.33;26.60;;;;;;;10.02;100.00;98278.31;1824374;77;21456;-60
2022/11/07 09:41:49;;;;;;;33.78;23.77;;;;;;;10.01;100.00;98282.09;1822302;77;21403;-58
2022/11/07 09:44:45;;;;;;;41.40;30.45;;;;;;;10.05;100.00;98277.77;1818229;77;21138;-58
2022/11/07 09:47:22;;;;;;;30.00;22.45;;;;;;;10.08;100.00;98275.31;1811220;77;21009;-60
2022/11/07 09:50:08;;;;;;;25.45;18.52;;;;;;;10.10;100.00;98268.36;1820967;77;21293;-59
2022/11/07 09:52:48;;;;;;;35.28;24.57;;;;;;;10.14;100.00;98281.47;1792276;77;20984;-59
2022/11/07 09:55:26;;;;;;;32.10;23.67;;;;;;;10.18;100.00;98277.14;1841853;77;20926;-59
2022/11/07 09:57:56;;;;;;;27.90;21.65;;;;;;;10.20;100.00;98282.48;1807276;77;21048;-60
2022/11/07 10:00:24;;;;;;;28.00;20.82;;;;;;;10.21;100.00;98275.25;1834109;77;20968;-58
2022/11/07 10:02:57;;;;;;;24.20;18.95;;;;;;;10.24;100.00;98280.05;1805719;78;21264;-58
2022/11/07 10:05:59;;;;;;;39.33;28.47;;;;;;;10.26;100.00;98277.89;1814512;77;20886;-60
2022/11/07 10:08:42;;;;;;;28.05;20.05;;;;;;;10.22;100.00;98286.23;1761284;80;21147;-59
2022/11/07 10:11:30;;;;;;;25.37;19.65;;;;;;;10.22;100.00;98282.22;1794126;78;21010;-60
2022/11/07 10:14:43;;;;;;;25.30;19.70;;;;;;;10.18;100.00;98280.63;1813251;77;20936;-58
2022/11/07 10:17:18;;;;;;;22.13;19.07;;;;;;;10.16;100.00;98280.11;1809959;78;21231;-59
2022/11/07 10:20:15;;;;;;;;;;;;;;;10.19;100.00;98281.43;1789154;77;21536;-59
2022/11/07 10:23:07;;;;;;;29.82;17.65;;;;;;;10.24;100.00;98285.41;1808288;78;20195;-60
2022/11/07 10:25:54;;;;;;;25.92;17.10;;;;;;;10.29;100.00;98290.72;1814389;78;20836;-60
2022/11/07 10:28:23;;;;;;;23.22;15.70;;;;;;;10.26;100.00;98284.58;1815028;77;21032;-58
2022/11/07 10:30:52;;;;;;;22.80;16.93;;;;;;;10.24;100.00;98297.45;1822718;77;21065;-58
2022/11/07 10:33:43;;;;;;;22.30;16.65;;;;;;;10.21;100.00;98294.80;1821913;77;21331;-59
2022/11/07 10:36:26;;;;;;;22.75;17.40;;;;;;;10.16;100.00;98304.20;1824081;77;21482;-58
2022/11/07 10:38:53;;;;;;;22.82;17.07;;;;;;;10.12;100.00;98302.36;1812249;78;21032;-58
2022/11/07 10:41:26;;;;;;;21.68;17.20;;;;;;;10.12;100.00;98295.67;1824187;77;20972;-60
2022/11/07 10:43:59;;;;;;;32.67;24.65;;;;;;;10.11;100.00;98295.38;1819635;77;21484;-60
2022/11/07 10:46:42;;;;;;;24.80;20.50;;;;;;;10.12;100.00;98288.98;1799821;77;25455;-59
2022/11/07 10:49:28;;;;;;;26.20;17.98;;;;;;;10.15;100.00;98285.75;1819370;77;21202;-59
2022/11/07 10:52:08;;;;;;;25.97;18.75;;;;;;;10.20;100.00;98278.99;1821880;77;21095;-59
2022/11/07 10:54:39;;;;;;;27.85;18.80;;;;;;;10.25;100.00;98289.66;1830361;76;21074;-59
2022/11/07 10:57:11;;;;;;;22.87;17.87;;;;;;;10.24;100.00;98283.50;1826084;77;21389;-59
2022/11/07 10:59:40;;;;;;;27.95;18.65;;;;;;;10.23;100.00;98290.48;1814352;78;20947;-58
2022/11/07 11:02:21;;;;;;;22.45;17.20;;;;;;;10.25;100.00;98277.63;1817652;77;21138;-59
2022/11/07 11:04:56;;;;;;;21.48;17.10;;;;;;;10.26;100.00;98281.91;1770322;79;21522;-59
2022/11/07 11:07:37;;;;;;;21.90;17.70;;;;;;;10.27;100.00;98280.81;1833350;77;21087;-59
2022/11/07 11:10:29;;;;;;;23.62;19.45;;;;;;;10.30;100.00;98278.92;1800407;77;21042;-59
2022/11/07 11:12:56;;;;;;;23.95;19.52;;;;;;;10.36;100.00;98283.17;1828496;77;21038;-59
2022/11/07 11:15:25;;;;;;;25.65;18.05;;;;;;;10.37;100.00;98274.03;1824016;77;21054;-59
2022/11/07 11:18:04;;;;;;;23.38;17.07;;;;;;;10.38;100.00;98266.27;1819279;77;21038;-59
2022/11/07 11:20:41;;;;;;;21.97;18.02;;;;;;;10.42;100.00;98267.83;1814132;77;20836;-59
2022/11/07 11:23:23;;;;;;;26.87;19.05;;;;;;;10.47;100.00;98265.11;1817077;77;21188;-59
2022/11/07 11:25:51;;;;;;;26.93;20.70;;;;;;;10.55;100.00;98271.20;1824820;77;21089;-59
2022/11/07 11:28:26;;;;;;;22.85;18.05;;;;;;;10.58;100.00;98267.94;1838266;77;21001;-60
2022/11/07 11:31:02;;;;;;;21.82;17.73;;;;;;;10.62;100.00;98258.28;1824213;77;21487;-58
2022/11/07 11:33:52;;;;;;;23.50;18.23;;;;;;;10.64;100.00;98254.23;1828812;77;20991;-59
2022/11/07 11:36:24;;;;;;;25.62;18.67;;;;;;;10.69;100.00;98259.52;1810288;77;21316;-58
2022/11/07 11:38:54;;;;;;;23.80;17.70;;;;;;;10.78;100.00;98243.09;1826947;77;20917;-59
2022/11/07 11:41:45;;;;;;;24.45;17.73;;;;;;;10.85;100.00;98230.16;1830317;77;20906;-59
2022/11/07 11:44:40;;;;;;;33.48;24.75;;;;;;;10.91;100.00;98229.00;1850785;77;21099;-59
2022/11/07 11:47:27;;;;;;;28.75;20.80;;;;;;;10.95;100.00;98224.66;1833650;77;20996;-59
2022/11/07 11:50:22;;;;;;;29.57;21.30;;;;;;;11.04;100.00;98225.37;1811195;77;21239;-58
2022/11/07 11:52:50;;;;;;;21.97;18.57;;;;;;;11.09;100.00;98215.92;1810412;77;20997;-59